Bookmark and Share
Track history (hours):
 

Lauretta

Last reported at 2014-Apr-24 03:32 UTC. Time now 2014-Apr-24 05:54 UTC.
Position N 56°51' E 011°48'.

Length 171 m; draft 5.2 m.

Type: Cargo ship. MMSI: 352528000.

NotesDate/timePositionNaut miles runAvg speedWind from/ knotsBaromVisibWave heightAir tempDewpointWater temp
2014-Apr-24 03:32N 56°51' E 011°48'1312.7
2014-Apr-24 02:30N 57°03' E 011°40'1212.3
2014-Apr-24 01:33N 57°14' E 011°33'1211.9
2014-Apr-24 00:34N 57°25' E 011°25'1111.2
2014-Apr-23 23:34N 57°34' E 011°12'1111.1
2014-Apr-23 22:34N 57°41' E 010°56'1110.6
2014-Apr-23 21:33N 57°47' E 010°39'1110.9
2014-Apr-23 20:33N 57°48' E 010°19'1212.0
2014-Apr-23 19:31N 57°48' E 009°55'1212.2
2014-Apr-23 18:33N 57°42' E 009°37'8411.5
2014-Apr-23 11:17N 56°45' E 007°43'912.1
2014-Apr-23 10:33N 56°38' E 007°34'8912.3
2014-Apr-23 03:18N 55°21' E 006°11'8512.0
2014-Apr-22 20:13N 54°09' E 004°54'1211.6
2014-Apr-22 19:10N 53°59' E 004°42'2011.5
2014-Apr-22 17:26N 53°45' E 004°18'2611.6
2014-Apr-22 15:14N 53°29' E 003°45'4410.5
2014-Apr-22 11:03N 52°46' E 003°28'0 0.4
2014-Apr-22 10:22N 52°46' E 003°28'1 0.9
2014-Apr-22 09:25N 52°47' E 003°27'2 2.3
2014-Apr-22 08:33N 52°49' E 003°27'1 1.0
2014-Apr-22 07:31N 52°48' E 003°27'1 0.6
2014-Apr-22 05:30N 52°47' E 003°27'4 3.8
2014-Apr-22 04:22N 52°45' E 003°21'3 1.1
2014-Apr-22 01:28N 52°46' E 003°26'2 1.6
2014-Apr-22 00:30N 52°45' E 003°23'15 7.4
2014-Apr-21 22:29N 52°33' E 003°11'5912.0
2014-Apr-21 17:32N 51°39' E 002°28'1312.9
2014-Apr-21 16:33N 51°30' E 002°15'1212.2
2014-Apr-21 15:33N 51°19' E 002°07'1111.4
2014-Apr-21 14:33N 51°10' E 001°55'1111.3
2014-Apr-21 13:33N 51°03' E 001°41'1010.4
2014-Apr-21 12:33N 50°55' E 001°30'10 9.5
2014-Apr-21 11:33N 50°46' E 001°24'12 9.7
2014-Apr-21 10:20N 50°37' E 001°13'810.6
2014-Apr-21 09:33N 50°31' E 001°03'1010.3
2014-Apr-21 08:33N 50°27' E 000°49'1210.7
2014-Apr-21 07:27N 50°23' E 000°31'910.4
2014-Apr-21 06:33N 50°21' E 000°17'1110.6
2014-Apr-21 05:31N 50°18' E 000°01'1111.2
2014-Apr-21 04:33N 50°15' W 000°16'1312.2
2014-Apr-21 03:29N 50°12' W 000°35'1111.7
2014-Apr-21 02:33N 50°09' W 000°52'1313.0
2014-Apr-21 01:33N 50°06' W 001°11'  
2014-Apr-17 18:33N 38°27' W 010°14'1211.4
2014-Apr-17 17:30N 38°20' W 010°02'1111.5
2014-Apr-17 16:33N 38°14' W 009°51'1110.8
2014-Apr-17 15:32N 38°07' W 009°40'1110.9
2014-Apr-17 14:33N 37°56' W 009°37'1111.1
2014-Apr-17 13:33N 37°46' W 009°34'1111.0
2014-Apr-17 12:33N 37°35' W 009°31'1211.5
2014-Apr-17 11:33N 37°24' W 009°27'1311.7
2014-Apr-17 10:26N 37°11' W 009°24'1111.5
2014-Apr-17 09:30N 37°00' W 009°21'1011.0
2014-Apr-17 08:33N 36°51' W 009°16'1311.1
2014-Apr-17 07:22N 36°43' W 009°02'1011.8
2014-Apr-17 06:33N 36°40' W 008°51'1211.9
2014-Apr-17 05:33N 36°37' W 008°37'1212.1
2014-Apr-17 04:33N 36°33' W 008°23'1211.9
2014-Apr-17 03:33N 36°30' W 008°08'4012.0
2014-Apr-17 00:12N 36°17' W 007°21'8010.4
2014-Apr-16 16:29N 35°57' W 005°45'8 8.8
2014-Apr-16 15:33N 35°58' W 005°35'10 9.6
2014-Apr-16 14:33N 36°01' W 005°23'10 9.8
2014-Apr-16 13:33N 36°03' W 005°12'21612.0
2014-Apr-15 19:32N 36°35' W 000°47'  

Dump ship's entire track history

sailing weather and tide predictions

Lauretta — H8NH — position and weather